Time;durP1;ratioP1;P1;durP2;ratioP2;P2;SDS_P1;SDS_P2;PMS_P1;PMS_P2;Temp;Humidity;BMP_temperature;BMP_pressure;BME280_temperature;BME280_humidity;BME280_pressure;Samples;Min_cycle;Max_cycle;Signal;HPM_P1;HPM_P2
2022/11/21 00:01:01;;;;;;;12.02;2.15;;;6.90;99.90;;;;;;5065119;28;20049;-59
2022/11/21 00:03:28;;;;;;;13.30;2.58;;;6.90;99.90;;;;;;5063529;28;20044;-56
2022/11/21 00:05:55;;;;;;;16.77;2.63;;;6.90;99.90;;;;;;5066310;28;20139;-57
2022/11/21 00:08:21;;;;;;;13.57;2.15;;;6.90;99.90;;;;;;5081277;28;20044;-58
2022/11/21 00:10:48;;;;;;;10.25;3.00;;;6.90;99.90;;;;;;5070511;28;20136;-57
2022/11/21 00:13:19;;;;;;;8.73;1.67;;;7.00;99.90;;;;;;5076744;28;20056;-58
2022/11/21 00:15:46;;;;;;;8.60;2.72;;;7.00;99.90;;;;;;5067624;28;20048;-58
2022/11/21 00:18:13;;;;;;;8.10;1.63;;;7.00;99.90;;;;;;5077615;28;20136;-57
2022/11/21 00:20:40;;;;;;;12.45;2.50;;;7.00;99.90;;;;;;5070732;28;20189;-58
2022/11/21 00:23:07;;;;;;;9.57;2.35;;;7.00;99.90;;;;;;5087292;28;20502;-58
2022/11/21 00:25:34;;;;;;;21.05;3.30;;;7.00;99.90;;;;;;5076669;28;20045;-57
2022/11/21 00:28:01;;;;;;;10.68;2.28;;;7.10;99.90;;;;;;5074208;28;20059;-58
2022/11/21 00:30:28;;;;;;;16.17;3.25;;;7.10;99.90;;;;;;5079075;28;20543;-57
2022/11/21 00:32:56;;;;;;;14.15;2.35;;;7.10;99.90;;;;;;5035497;28;20049;-58
2022/11/21 00:35:23;;;;;;;9.52;2.38;;;7.00;99.90;;;;;;5086498;28;20067;-58
2022/11/21 00:37:50;;;;;;;11.02;2.47;;;7.00;99.90;;;;;;5086955;28;20518;-58
2022/11/21 00:40:17;;;;;;;8.70;2.75;;;7.00;99.90;;;;;;5075490;28;20054;-59
2022/11/21 00:42:44;;;;;;;7.03;1.95;;;6.90;99.90;;;;;;5069809;28;20495;-58
2022/11/21 00:45:11;;;;;;;17.17;2.72;;;6.90;99.90;;;;;;5081227;28;20055;-59
2022/11/21 00:47:37;;;;;;;13.30;2.55;;;6.90;99.90;;;;;;5070121;28;20138;-58
2022/11/21 00:50:05;;;;;;;8.95;2.20;;;6.80;99.90;;;;;;5065008;28;20052;-60
2022/11/21 00:52:31;;;;;;;13.75;2.35;;;6.90;99.90;;;;;;5087940;28;20054;-60
2022/11/21 00:54:58;;;;;;;9.25;1.98;;;6.80;99.90;;;;;;5083037;28;20047;-59
2022/11/21 00:57:25;;;;;;;12.93;2.20;;;6.80;99.90;;;;;;5085447;28;20059;-55
2022/11/21 00:59:52;;;;;;;13.75;2.70;;;6.90;99.90;;;;;;5079151;28;20055;-61
2022/11/21 01:02:18;;;;;;;10.45;1.75;;;6.80;99.90;;;;;;5083058;28;20053;-58
2022/11/21 01:04:45;;;;;;;9.38;2.17;;;6.80;99.90;;;;;;5063734;28;20138;-57
2022/11/21 01:07:13;;;;;;;10.32;1.77;;;6.80;99.90;;;;;;5080367;28;20067;-59
2022/11/21 01:09:40;;;;;;;5.65;1.90;;;6.80;99.90;;;;;;5083891;28;20123;-59
2022/11/21 01:12:06;;;;;;;9.85;1.73;;;6.80;99.90;;;;;;5079282;28;20048;-58
2022/11/21 01:14:33;;;;;;;11.93;2.63;;;6.80;99.90;;;;;;5085490;28;20040;-58
2022/11/21 01:17:00;;;;;;;8.15;2.03;;;6.80;99.90;;;;;;5076957;28;20058;-58
2022/11/21 01:19:26;;;;;;;12.88;2.40;;;6.80;99.90;;;;;;5068200;28;20085;-60
2022/11/21 01:21:53;;;;;;;13.50;2.58;;;6.80;99.90;;;;;;5058615;28;20127;-58
2022/11/21 01:24:20;;;;;;;9.90;2.38;;;6.80;99.90;;;;;;5086159;28;20044;-59
2022/11/21 01:26:49;;;;;;;12.10;2.85;;;6.80;99.90;;;;;;5049723;28;20055;-58
2022/11/21 01:29:16;;;;;;;5.97;1.58;;;6.80;99.90;;;;;;5082919;28;20080;-58
2022/11/21 01:31:43;;;;;;;13.48;2.95;;;6.90;99.90;;;;;;5074379;28;20491;-58
2022/11/21 01:34:10;;;;;;;14.90;2.10;;;6.90;99.90;;;;;;5087272;28;20046;-59
2022/11/21 01:36:36;;;;;;;13.07;2.50;;;6.90;99.90;;;;;;5049577;28;20048;-56
2022/11/21 01:39:04;;;;;;;8.48;1.40;;;7.00;99.90;;;;;;5087838;28;20044;-56
2022/11/21 01:41:34;;;;;;;8.05;1.70;;;7.00;99.90;;;;;;5083333;28;20042;-57
2022/11/21 01:44:22;;;;;;;15.50;2.60;;;6.90;99.90;;;;;;5081722;28;20060;-57
2022/11/21 01:46:50;;;;;;;11.18;2.75;;;6.90;99.90;;;;;;5075321;28;20056;-57
2022/11/21 01:49:22;;;;;;;6.57;2.80;;;7.00;99.90;;;;;;5086663;28;20052;-56
2022/11/21 01:52:03;;;;;;;6.60;1.27;;;6.90;99.90;;;;;;5049060;28;20045;-56
2022/11/21 01:54:33;;;;;;;17.02;2.28;;;6.90;99.90;;;;;;5068990;28;20048;-59
2022/11/21 01:57:04;;;;;;;7.97;2.25;;;6.90;99.90;;;;;;5078975;28;20056;-56
2022/11/21 01:59:55;;;;;;;11.15;2.53;;;6.80;99.90;;;;;;5085932;28;20164;-57
2022/11/21 02:02:23;;;;;;;15.20;2.45;;;6.80;99.90;;;;;;5058733;28;20044;-58
2022/11/21 02:04:50;;;;;;;9.90;2.40;;;6.80;99.90;;;;;;5067715;28;20052;-57
2022/11/21 02:07:18;;;;;;;9.60;1.80;;;6.80;99.90;;;;;;4714998;28;10000061;-58
2022/11/21 02:09:45;;;;;;;9.95;2.13;;;6.70;99.90;;;;;;5065736;28;20056;-56
2022/11/21 02:12:22;;;;;;;11.13;2.08;;;6.70;99.90;;;;;;5049550;28;20066;-55
2022/11/21 02:14:49;;;;;;;12.68;2.25;;;6.70;99.90;;;;;;5050657;28;20057;-57
2022/11/21 02:17:16;;;;;;;10.13;1.70;;;6.70;99.90;;;;;;5059854;28;20052;-57
2022/11/21 02:19:51;;;;;;;9.18;2.00;;;6.60;99.90;;;;;;5052917;28;20080;-57
2022/11/21 02:22:49;;;;;;;13.93;1.80;;;6.60;99.90;;;;;;5052610;28;20082;-58
2022/11/21 02:25:27;;;;;;;13.15;2.25;;;6.60;99.90;;;;;;5071020;28;20135;-57
2022/11/21 02:28:07;;;;;;;10.93;2.60;;;6.60;99.90;;;;;;5073511;28;20062;-58
2022/11/21 02:30:36;;;;;;;10.05;1.70;;;6.50;99.90;;;;;;5069254;28;20056;-58
2022/11/21 02:33:03;;;;;;;13.73;2.47;;;6.50;99.90;;;;;;5078936;28;20040;-57
2022/11/21 02:35:29;;;;;;;12.10;2.25;;;6.40;99.90;;;;;;5072675;28;20061;-59
2022/11/21 02:37:58;;;;;;;8.75;1.88;;;6.30;99.90;;;;;;5087934;28;20056;-58
2022/11/21 02:40:36;;;;;;;15.23;2.30;;;6.40;99.90;;;;;;5052195;28;20059;-58
2022/11/21 02:43:13;;;;;;;10.40;1.98;;;6.40;99.90;;;;;;5059790;28;20052;-58
2022/11/21 02:45:41;;;;;;;8.65;2.33;;;6.50;99.90;;;;;;5074673;28;20059;-56
2022/11/21 02:48:08;;;;;;;10.60;1.80;;;6.40;99.90;;;;;;5076945;28;20047;-58
2022/11/21 02:50:36;;;;;;;8.38;2.35;;;6.40;99.90;;;;;;5058608;28;20060;-58
2022/11/21 02:53:04;;;;;;;11.38;2.47;;;6.40;99.90;;;;;;5072612;28;20044;-57
2022/11/21 02:55:31;;;;;;;9.95;1.67;;;6.30;99.90;;;;;;5071973;28;20040;-58
2022/11/21 02:57:58;;;;;;;8.40;2.45;;;6.30;99.90;;;;;;5060677;28;20102;-57
2022/11/21 03:00:31;;;;;;;12.77;2.35;;;6.30;99.90;;;;;;5079642;28;20040;-60
2022/11/21 03:02:58;;;;;;;8.30;2.10;;;6.30;99.90;;;;;;5087966;28;20048;-63
2022/11/21 03:05:25;;;;;;;6.43;1.80;;;6.20;99.90;;;;;;5082300;28;20686;-57
2022/11/21 03:07:51;;;;;;;14.57;3.65;;;6.20;99.90;;;;;;5085372;28;20490;-57
2022/11/21 03:10:19;;;;;;;7.68;1.52;;;6.20;99.90;;;;;;5080910;28;20123;-57
2022/11/21 03:12:46;;;;;;;11.38;1.88;;;6.20;99.90;;;;;;5072922;28;20134;-58
2022/11/21 03:15:13;;;;;;;14.73;2.50;;;6.20;99.90;;;;;;5082600;28;20055;-57
2022/11/21 03:17:40;;;;;;;14.77;1.85;;;6.10;99.90;;;;;;5054409;28;20078;-58
2022/11/21 03:20:07;;;;;;;9.25;1.40;;;6.10;99.90;;;;;;5084911;28;20135;-59
2022/11/21 03:22:34;;;;;;;8.68;2.00;;;6.10;99.90;;;;;;5081474;28;20052;-56
2022/11/21 03:25:01;;;;;;;14.88;2.85;;;6.10;99.90;;;;;;5077902;28;20044;-57
2022/11/21 03:27:28;;;;;;;7.32;1.77;;;6.10;99.90;;;;;;5087092;28;20072;-58
2022/11/21 03:29:54;;;;;;;8.38;1.90;;;6.10;99.90;;;;;;5084915;28;20044;-56
2022/11/21 03:32:21;;;;;;;11.05;2.40;;;6.10;99.90;;;;;;5089006;28;20138;-56
2022/11/21 03:34:48;;;;;;;7.47;2.03;;;6.00;99.90;;;;;;5081981;28;20040;-56
2022/11/21 03:37:15;;;;;;;13.57;2.15;;;6.00;99.90;;;;;;5083170;28;20050;-56
2022/11/21 03:39:42;;;;;;;13.98;2.42;;;6.00;99.90;;;;;;5084443;28;20051;-56
2022/11/21 03:42:09;;;;;;;6.10;1.45;;;6.00;99.90;;;;;;5081280;28;20044;-58
2022/11/21 03:44:36;;;;;;;13.00;3.58;;;5.90;99.90;;;;;;5084472;28;20537;-58
2022/11/21 03:47:02;;;;;;;10.70;2.20;;;5.90;99.90;;;;;;5079348;28;20059;-58
2022/11/21 03:49:29;;;;;;;11.55;2.17;;;5.90;99.90;;;;;;5083949;28;20036;-59
2022/11/21 03:51:56;;;;;;;11.70;1.95;;;5.80;99.90;;;;;;5079600;28;20048;-56
2022/11/21 03:54:23;;;;;;;10.77;2.67;;;5.80;99.90;;;;;;5086231;28;20407;-56
2022/11/21 03:56:49;;;;;;;8.88;3.85;;;5.70;99.90;;;;;;5082944;28;20040;-56
2022/11/21 03:59:16;;;;;;;8.88;1.92;;;5.70;99.90;;;;;;5077541;28;20134;-57
2022/11/21 04:01:43;;;;;;;10.48;2.28;;;5.70;99.90;;;;;;5084222;28;20044;-57
2022/11/21 04:04:09;;;;;;;11.23;2.20;;;5.60;99.90;;;;;;5081600;28;20376;-58
2022/11/21 04:06:36;;;;;;;3.45;1.80;;;5.60;99.90;;;;;;5085381;28;20127;-59
2022/11/21 04:09:03;;;;;;;6.43;1.85;;;5.60;99.90;;;;;;5088257;28;20048;-58
2022/11/21 04:11:30;;;;;;;6.63;1.63;;;5.50;99.90;;;;;;5077838;28;20045;-57
2022/11/21 04:13:56;;;;;;;11.52;1.95;;;5.50;99.90;;;;;;5086513;28;20048;-57
2022/11/21 04:16:23;;;;;;;10.02;2.70;;;5.90;99.90;;;;;;5084377;28;20044;-57
2022/11/21 04:18:50;;;;;;;7.72;2.25;;;5.40;99.90;;;;;;5084283;28;20128;-56
2022/11/21 04:21:17;;;;;;;10.35;2.35;;;5.40;99.90;;;;;;5082329;28;20089;-57
2022/11/21 04:23:43;;;;;;;25.45;6.50;;;5.30;99.90;;;;;;5081360;28;20048;-57
2022/11/21 04:26:10;;;;;;;15.80;2.60;;;5.30;99.90;;;;;;5054052;28;20044;-57
2022/11/21 04:28:37;;;;;;;11.70;2.20;;;5.30;99.90;;;;;;5087381;28;20529;-58
2022/11/21 04:31:04;;;;;;;13.18;2.88;;;5.30;99.90;;;;;;5086825;28;20050;-57
2022/11/21 04:33:37;;;;;;;8.75;2.15;;;5.20;99.90;;;;;;5073434;28;20044;-58
2022/11/21 04:36:04;;;;;;;8.57;1.55;;;5.20;99.90;;;;;;5084626;28;20047;-57
2022/11/21 04:38:31;;;;;;;8.55;2.70;;;5.20;99.90;;;;;;5087158;28;20117;-57
2022/11/21 04:40:57;;;;;;;5.22;1.60;;;5.20;99.90;;;;;;5087977;28;20044;-57
2022/11/21 04:43:24;;;;;;;7.75;1.70;;;5.20;99.90;;;;;;5084141;28;20040;-57
2022/11/21 04:45:52;;;;;;;7.90;2.13;;;5.20;99.90;;;;;;5088003;28;20056;-56
2022/11/21 04:48:19;;;;;;;7.72;1.92;;;5.20;99.90;;;;;;5083925;28;20054;-57
2022/11/21 04:50:45;;;;;;;6.07;1.95;;;5.20;99.90;;;;;;5088791;28;20062;-57
2022/11/21 04:53:12;;;;;;;8.68;1.70;;;5.20;99.90;;;;;;5081969;28;20299;-57
2022/11/21 04:55:39;;;;;;;6.10;1.20;;;5.10;99.90;;;;;;5066175;28;20044;-57
2022/11/21 04:58:05;;;;;;;7.00;1.60;;;5.10;99.90;;;;;;5080066;28;20422;-58
2022/11/21 05:00:33;;;;;;;12.85;2.15;;;5.00;99.90;;;;;;5069082;28;20048;-54
2022/11/21 05:03:03;;;;;;;7.72;1.92;;;5.00;99.90;;;;;;5080616;28;20054;-56
2022/11/21 05:05:30;;;;;;;12.77;2.20;;;5.00;99.90;;;;;;5087399;28;20082;-57
2022/11/21 05:07:57;;;;;;;18.10;2.22;;;5.00;99.90;;;;;;5081170;28;20070;-55
2022/11/21 05:10:24;;;;;;;5.13;1.92;;;5.00;99.90;;;;;;5081934;28;20480;-57
2022/11/21 05:15:43;;;;;;;7.30;1.52;;;5.00;99.90;;;;;;5071420;28;20116;-57
2022/11/21 05:18:10;;;;;;;9.65;1.92;;;4.90;99.90;;;;;;5075736;28;20048;-57
2022/11/21 05:20:37;;;;;;;9.20;2.10;;;5.00;99.90;;;;;;5084816;28;20303;-59
2022/11/21 05:23:04;;;;;;;11.38;2.00;;;5.00;99.90;;;;;;5081933;28;20044;-58
2022/11/21 05:25:31;;;;;;;6.95;1.90;;;5.00;99.90;;;;;;5085353;28;20620;-58
2022/11/21 05:27:57;;;;;;;16.08;2.50;;;5.00;99.90;;;;;;5068643;28;20075;-56
2022/11/21 05:30:24;;;;;;;8.38;1.90;;;5.00;99.90;;;;;;5067803;28;20045;-56
2022/11/21 05:32:51;;;;;;;10.73;2.15;;;5.00;99.90;;;;;;5069114;28;20043;-54
2022/11/21 05:35:18;;;;;;;10.55;2.47;;;4.90;99.90;;;;;;5078544;28;20131;-57
2022/11/21 05:37:45;;;;;;;14.20;2.47;;;4.90;99.90;;;;;;5060987;28;20371;-59
2022/11/21 05:40:11;;;;;;;7.97;2.05;;;5.00;99.90;;;;;;5065144;28;20052;-57
2022/11/21 05:45:24;;;;;;;6.53;2.55;;;5.00;99.90;;;;;;5075687;28;20131;-58
2022/11/21 05:47:51;;;;;;;12.27;2.30;;;5.00;99.90;;;;;;5087812;28;20510;-58
2022/11/21 05:50:18;;;;;;;9.18;2.30;;;5.00;99.90;;;;;;5078940;28;20199;-55
2022/11/21 05:52:45;;;;;;;6.32;2.53;;;5.20;99.90;;;;;;5091166;28;20044;-55
2022/11/21 05:55:11;;;;;;;6.82;1.75;;;5.10;99.90;;;;;;5079564;28;20135;-56
2022/11/21 05:57:38;;;;;;;6.22;1.90;;;5.10;99.90;;;;;;5084138;28;20044;-57
2022/11/21 06:00:05;;;;;;;17.25;2.88;;;5.20;99.90;;;;;;5086258;28;20561;-57
2022/11/21 06:05:17;;;;;;;13.45;2.60;;;5.20;99.90;;;;;;5081084;28;20055;-55
2022/11/21 06:07:44;;;;;;;19.10;2.22;;;5.30;99.90;;;;;;5075140;28;20503;-57
2022/11/21 06:10:11;;;;;;;20.58;2.88;;;5.30;99.90;;;;;;5086405;28;20058;-56
2022/11/21 06:12:38;;;;;;;14.00;2.47;;;5.30;99.90;;;;;;5076305;28;20155;-56
2022/11/21 06:15:06;;;;;;;14.85;3.00;;;5.40;99.90;;;;;;5082431;28;20041;-56
2022/11/21 06:17:33;;;;;;;12.15;3.17;;;5.40;99.90;;;;;;5084329;28;20475;-56
2022/11/21 06:19:59;;;;;;;10.30;2.97;;;5.40;99.90;;;;;;5088632;28;20040;-55
2022/11/21 06:22:26;;;;;;;21.65;3.55;;;5.40;99.90;;;;;;5078895;28;20102;-58
2022/11/21 06:24:53;;;;;;;14.85;2.92;;;5.50;99.90;;;;;;5070528;28;20131;-57
2022/11/21 06:27:20;;;;;;;20.98;4.13;;;5.50;99.90;;;;;;5079348;28;20056;-59
2022/11/21 06:29:49;;;;;;;15.32;3.53;;;5.50;99.90;;;;;;5087323;28;20052;-57
2022/11/21 06:32:16;;;;;;;13.73;4.13;;;5.60;99.90;;;;;;5079139;28;20056;-57
2022/11/21 06:34:43;;;;;;;20.83;4.88;;;5.60;99.90;;;;;;5089415;28;20503;-56
2022/11/21 06:37:10;;;;;;;23.02;3.78;;;5.60;99.90;;;;;;5089676;28;20040;-57
2022/11/21 06:39:37;;;;;;;19.25;2.80;;;5.70;99.90;;;;;;5062950;28;20052;-58
2022/11/21 06:42:04;;;;;;;20.35;4.82;;;5.70;99.90;;;;;;5081208;28;20059;-58
2022/11/21 06:44:31;;;;;;;14.00;3.33;;;5.70;99.90;;;;;;5085733;28;20090;-58
2022/11/21 06:46:57;;;;;;;12.02;2.35;;;5.80;99.90;;;;;;5082598;28;20062;-58
2022/11/21 06:49:24;;;;;;;16.02;2.95;;;5.80;99.90;;;;;;5071236;28;20040;-57
2022/11/21 06:51:51;;;;;;;16.25;3.15;;;5.80;99.90;;;;;;5076762;28;20068;-58
2022/11/21 06:54:18;;;;;;;17.92;3.58;;;5.90;99.90;;;;;;5086524;28;20062;-57
2022/11/21 06:56:45;;;;;;;14.88;3.55;;;5.90;99.90;;;;;;5081408;28;20165;-55
2022/11/21 06:59:11;;;;;;;20.38;3.33;;;5.90;99.90;;;;;;5085721;28;20052;-55
2022/11/21 07:01:38;;;;;;;10.70;2.65;;;6.00;99.90;;;;;;5086013;28;20063;-55
2022/11/21 07:04:05;;;;;;;18.55;3.20;;;6.10;99.90;;;;;;5059149;28;20052;-57
2022/11/21 07:06:33;;;;;;;10.98;3.15;;;6.20;99.90;;;;;;5044768;28;20388;-56
2022/11/21 07:09:00;;;;;;;18.50;3.08;;;6.20;99.90;;;;;;5047192;28;20160;-61
2022/11/21 07:11:47;;;;;;;9.50;2.65;;;6.30;99.90;;;;;;5042719;28;20156;-57
2022/11/21 07:14:13;;;;;;;10.38;2.33;;;6.30;99.90;;;;;;5045902;28;20056;-56
2022/11/21 07:16:40;;;;;;;20.65;4.05;;;6.40;99.90;;;;;;5044474;28;20037;-57
2022/11/21 07:19:07;;;;;;;15.55;3.65;;;6.40;99.90;;;;;;5033709;28;20156;-58
2022/11/21 07:21:33;;;;;;;16.63;2.92;;;6.50;99.90;;;;;;5030197;28;20643;-57
2022/11/21 07:24:00;;;;;;;10.18;2.55;;;6.60;99.90;;;;;;5035147;28;20497;-58
2022/11/21 07:26:27;;;;;;;17.73;2.88;;;6.70;99.90;;;;;;5039664;28;20521;-58
2022/11/21 07:28:54;;;;;;;13.45;2.97;;;6.70;99.90;;;;;;5038319;28;20049;-57
2022/11/21 07:31:21;;;;;;;13.88;2.85;;;6.80;99.90;;;;;;5038461;28;20064;-57
2022/11/21 07:33:48;;;;;;;14.85;3.95;;;6.80;99.90;;;;;;5036636;28;20497;-58
2022/11/21 07:36:15;;;;;;;20.23;2.80;;;6.90;99.90;;;;;;5038397;28;20132;-57
2022/11/21 07:38:42;;;;;;;9.15;2.45;;;6.90;99.90;;;;;;5037940;28;20230;-59
2022/11/21 07:41:09;;;;;;;9.98;1.98;;;6.90;99.90;;;;;;5049267;28;20052;-59
2022/11/21 07:43:35;;;;;;;11.93;2.28;;;6.90;99.90;;;;;;5035418;28;20045;-57
2022/11/21 07:46:02;;;;;;;16.15;2.78;;;6.90;99.90;;;;;;5046808;28;20080;-58
2022/11/21 07:48:29;;;;;;;8.57;2.60;;;6.90;99.90;;;;;;5037897;28;20045;-56
2022/11/21 07:50:56;;;;;;;17.27;2.35;;;6.80;99.90;;;;;;5042481;28;20139;-59
2022/11/21 07:53:23;;;;;;;14.10;2.42;;;6.80;99.90;;;;;;5041241;28;20053;-59
2022/11/21 07:55:50;;;;;;;16.67;2.67;;;6.80;99.90;;;;;;5041785;28;20156;-60
2022/11/21 07:58:16;;;;;;;9.52;2.03;;;6.80;99.90;;;;;;5039757;28;20077;-58
2022/11/21 08:00:43;;;;;;;13.32;2.70;;;6.80;99.90;;;;;;5048753;28;20049;-57
2022/11/21 08:03:11;;;;;;;22.85;3.13;;;6.80;99.90;;;;;;5046764;28;20104;-55
2022/11/21 08:05:39;;;;;;;25.15;3.20;;;6.80;99.90;;;;;;5077385;28;20060;-59
2022/11/21 08:08:06;;;;;;;14.43;2.47;;;6.80;99.90;;;;;;5085469;28;20039;-58
2022/11/21 08:10:39;;;;;;;11.00;2.05;;;7.00;99.90;;;;;;5077387;28;20044;-60
2022/11/21 08:13:06;;;;;;;11.20;2.33;;;6.80;99.90;;;;;;5054147;28;20056;-58
2022/11/21 08:15:33;;;;;;;9.00;2.83;;;6.80;99.90;;;;;;5078829;28;20639;-57
2022/11/21 08:18:09;;;;;;;17.17;3.92;;;6.90;99.90;;;;;;5084314;28;20066;-57
2022/11/21 08:20:36;;;;;;;11.98;3.40;;;6.90;99.90;;;;;;5058976;28;20051;-59
2022/11/21 08:23:03;;;;;;;14.00;2.67;;;6.90;99.90;;;;;;5088189;28;20545;-59
2022/11/21 08:25:30;;;;;;;14.05;2.50;;;6.90;99.90;;;;;;5075980;28;20044;-58
2022/11/21 08:27:57;;;;;;;11.15;3.05;;;7.00;99.90;;;;;;5088218;28;20127;-60
2022/11/21 08:30:24;;;;;;;20.38;3.67;;;7.00;99.90;;;;;;5071081;28;20051;-59
2022/11/21 08:32:50;;;;;;;19.00;2.70;;;7.00;99.90;;;;;;5073921;28;20505;-59
2022/11/21 08:35:17;;;;;;;12.05;2.75;;;7.10;99.90;;;;;;5082965;28;20047;-55
2022/11/21 08:37:44;;;;;;;12.13;2.20;;;7.10;99.90;;;;;;5087908;28;20043;-58
2022/11/21 08:40:11;;;;;;;20.42;3.30;;;7.10;99.90;;;;;;5060949;28;20048;-57
2022/11/21 08:42:38;;;;;;;10.82;2.53;;;7.20;99.90;;;;;;5083951;28;20044;-58
2022/11/21 08:45:05;;;;;;;15.27;3.03;;;7.20;99.90;;;;;;5081397;28;20491;-56
2022/11/21 08:47:32;;;;;;;14.13;1.77;;;7.20;99.90;;;;;;5081155;28;20052;-59
2022/11/21 08:49:59;;;;;;;16.20;2.25;;;7.30;99.90;;;;;;5085862;28;20047;-59
2022/11/21 08:52:34;;;;;;;13.48;2.92;;;7.30;99.90;;;;;;5075851;28;20055;-58
2022/11/21 08:55:01;;;;;;;14.48;2.53;;;7.30;99.90;;;;;;5063801;28;20055;-59
2022/11/21 08:57:30;;;;;;;16.08;2.60;;;7.40;99.90;;;;;;5083828;28;20048;-59
2022/11/21 08:59:56;;;;;;;13.85;2.40;;;7.40;99.90;;;;;;5085933;28;20047;-59
2022/11/21 09:02:23;;;;;;;21.20;3.05;;;7.40;99.90;;;;;;5075685;28;20048;-58
2022/11/21 09:04:50;;;;;;;10.60;2.20;;;7.50;99.90;;;;;;5085680;28;20419;-57
2022/11/21 09:07:17;;;;;;;15.20;2.80;;;7.50;99.90;;;;;;5076061;28;20049;-58
2022/11/21 09:09:44;;;;;;;14.18;2.67;;;7.60;99.90;;;;;;5086954;28;20060;-58
2022/11/21 09:12:10;;;;;;;7.60;1.92;;;7.60;99.90;;;;;;5079919;28;20402;-56
2022/11/21 09:20:08;;;;;;;15.80;2.33;;;7.70;99.90;;;;;;5071376;28;20052;-57
2022/11/21 09:22:35;;;;;;;20.73;3.70;;;7.70;99.90;;;;;;5044375;28;20072;-59
2022/11/21 09:25:05;;;;;;;22.13;2.55;;;7.70;99.90;;;;;;5049481;28;20071;-57
2022/11/21 09:27:31;;;;;;;14.10;2.70;;;7.80;99.90;;;;;;5075628;28;20047;-58
2022/11/21 09:29:58;;;;;;;8.75;1.70;;;7.80;99.90;;;;;;5087203;28;20047;-57
2022/11/21 09:32:25;;;;;;;17.05;2.95;;;7.90;99.90;;;;;;5064629;28;20139;-58
2022/11/21 09:34:51;;;;;;;11.80;2.97;;;7.90;99.90;;;;;;5069426;28;20172;-60
2022/11/21 09:37:18;;;;;;;12.52;2.38;;;7.90;99.90;;;;;;5082404;28;20048;-57
2022/11/21 09:39:45;;;;;;;7.77;2.33;;;7.90;99.90;;;;;;4734166;28;10001610;-57
2022/11/21 09:42:33;;;;;;;14.75;2.03;;;7.90;99.90;;;;;;5068378;28;20055;-56
2022/11/21 09:45:08;;;;;;;14.45;2.58;;;8.00;99.90;;;;;;5086748;28;20127;-58
2022/11/21 09:47:37;;;;;;;14.25;2.17;;;8.00;99.90;;;;;;5082246;28;20044;-56
2022/11/21 09:50:25;;;;;;;11.63;2.42;;;8.00;99.90;;;;;;5084989;28;20135;-57
2022/11/21 09:53:10;;;;;;;18.15;2.47;;;8.00;99.90;;;;;;5080129;28;20067;-58
2022/11/21 09:55:43;;;;;;;12.07;2.60;;;8.00;99.90;;;;;;5066916;28;20052;-58
2022/11/21 09:58:19;;;;;;;18.17;3.30;;;8.00;99.90;;;;;;5063607;28;20044;-57
2022/11/21 10:00:48;;;;;;;14.85;3.00;;;8.00;99.90;;;;;;5065856;28;20568;-56
2022/11/21 10:03:15;;;;;;;12.30;2.30;;;8.00;99.90;;;;;;5071102;28;20067;-59
2022/11/21 10:06:03;;;;;;;8.95;2.00;;;8.00;99.90;;;;;;5064949;28;20064;-57
2022/11/21 10:08:51;;;;;;;19.38;2.95;;;8.00;99.90;;;;;;5063951;28;20078;-54
2022/11/21 10:11:24;;;;;;;15.73;2.58;;;8.00;99.90;;;;;;5067125;28;20366;-57
2022/11/21 10:14:22;;;;;;;14.70;2.72;;;8.00;99.90;;;;;;5079555;28;20044;-53
2022/11/21 10:16:54;;;;;;;16.30;3.17;;;8.10;99.90;;;;;;5049685;28;20053;-53
2022/11/21 10:19:28;;;;;;;23.95;4.35;;;8.10;99.90;;;;;;5064936;28;20067;-58
2022/11/21 10:22:26;;;;;;;10.70;2.17;;;8.10;99.90;;;;;;5067094;28;20131;-58
2022/11/21 10:25:02;;;;;;;20.42;2.83;;;8.10;99.90;;;;;;5069390;28;20149;-57
2022/11/21 10:27:33;;;;;;;15.18;3.03;;;8.10;99.90;;;;;;5067593;28;20126;-58
2022/11/21 10:30:13;;;;;;;14.70;3.78;;;8.10;99.90;;;;;;5051840;28;20048;-57
2022/11/21 10:32:52;;;;;;;17.65;2.65;;;8.10;99.90;;;;;;5067307;28;20429;-58
2022/11/21 10:35:36;;;;;;;21.73;3.38;;;8.20;99.90;;;;;;5079176;28;20138;-56
2022/11/21 10:38:21;;;;;;;9.63;2.13;;;8.20;99.90;;;;;;5055322;28;20040;-59
2022/11/21 10:41:05;;;;;;;13.32;2.95;;;8.20;99.90;;;;;;5075111;28;20059;-56
2022/11/21 10:46:27;;;;;;;19.58;3.20;;;8.30;99.90;;;;;;5069620;28;20040;-56
2022/11/21 10:49:01;;;;;;;21.35;3.88;;;8.30;99.90;;;;;;5085923;28;20045;-57
2022/11/21 10:51:46;;;;;;;21.30;3.35;;;8.30;99.90;;;;;;5078026;28;20048;-56
2022/11/21 10:54:31;;;;;;;18.30;4.10;;;8.30;99.90;;;;;;5063123;28;20209;-58
2022/11/21 10:57:12;;;;;;;28.17;4.45;;;8.30;99.90;;;;;;5067559;28;20305;-58
2022/11/21 10:59:39;;;;;;;19.23;3.08;;;8.30;99.90;;;;;;5065058;28;20048;-59
2022/11/21 11:02:12;;;;;;;30.27;3.60;;;8.30;99.90;;;;;;5067358;28;20044;-57
2022/11/21 11:04:39;;;;;;;18.48;4.40;;;8.40;99.90;;;;;;5084007;28;20056;-53
2022/11/21 11:07:24;;;;;;;20.25;3.05;;;8.40;99.90;;;;;;5084778;28;20043;-58
2022/11/21 11:09:52;;;;;;;22.60;4.05;;;8.40;99.90;;;;;;5075631;28;20483;-55
2022/11/21 11:15:23;;;;;;;20.17;2.85;;;8.50;99.90;;;;;;5065956;28;20421;-58
2022/11/21 11:18:00;;;;;;;16.63;2.85;;;8.40;99.90;;;;;;5064957;28;20044;-57
2022/11/21 11:20:35;;;;;;;17.48;2.70;;;8.50;99.90;;;;;;5058050;28;20049;-56
2022/11/21 11:23:26;;;;;;;17.30;4.72;;;8.50;99.90;;;;;;5086133;28;20097;-58
2022/11/21 11:25:54;;;;;;;15.48;3.38;;;8.50;99.90;;;;;;5071354;28;20036;-59
2022/11/21 11:28:24;;;;;;;19.60;2.90;;;8.50;99.90;;;;;;5068677;28;20064;-56
2022/11/21 11:30:52;;;;;;;17.58;3.05;;;8.50;99.90;;;;;;5073770;28;20043;-58
2022/11/21 11:33:36;;;;;;;17.65;2.97;;;8.60;99.90;;;;;;5087184;28;20052;-60
2022/11/21 11:36:13;;;;;;;19.45;3.97;;;8.60;99.90;;;;;;5081851;28;20051;-58
2022/11/21 11:38:56;;;;;;;15.18;2.97;;;8.60;99.90;;;;;;5071755;28;20054;-58
2022/11/21 11:47:47;;;;;;;23.27;3.70;;;8.70;99.90;;;;;;5070291;28;20471;-59
2022/11/21 11:50:31;;;;;;;25.23;4.38;;;8.70;99.90;;;;;;5071965;28;20044;-58
2022/11/21 11:53:14;;;;;;;15.10;3.15;;;8.70;99.90;;;;;;5081230;28;20040;-57
2022/11/21 11:55:55;;;;;;;28.08;4.13;;;8.70;99.90;;;;;;5070701;28;20048;-57
2022/11/21 11:58:30;;;;;;;22.42;3.65;;;8.80;99.90;;;;;;5061581;28;20049;-57
2022/11/21 12:01:14;;;;;;;17.77;3.33;;;8.80;99.90;;;;;;5080801;28;20044;-56
2022/11/21 12:03:42;;;;;;;18.35;3.40;;;8.90;99.90;;;;;;5070720;28;20104;-57
2022/11/21 12:06:26;;;;;;;16.58;4.70;;;8.90;99.90;;;;;;5085466;28;20545;-59
2022/11/21 12:09:19;;;;;;;25.45;3.70;;;9.00;99.90;;;;;;5063115;28;20048;-56
2022/11/21 12:12:06;;;;;;;26.95;4.28;;;9.00;99.90;;;;;;5065923;28;20047;-58
2022/11/21 12:17:32;;;;;;;18.23;4.07;;;9.10;99.90;;;;;;5064770;28;20054;-57
2022/11/21 12:20:00;;;;;;;20.00;4.20;;;9.20;99.90;;;;;;5067389;28;20106;-59
2022/11/21 12:22:27;;;;;;;14.40;3.60;;;9.10;99.90;;;;;;5069358;28;20048;-57
2022/11/21 12:24:54;;;;;;;21.75;3.33;;;9.20;99.90;;;;;;5071053;28;20071;-58
2022/11/21 12:27:27;;;;;;;20.70;3.42;;;9.20;99.90;;;;;;5084539;28;20476;-56
2022/11/21 12:30:28;;;;;;;14.52;3.97;;;9.30;99.90;;;;;;5056218;28;20058;-56
2022/11/21 12:33:05;;;;;;;20.85;4.13;;;9.30;99.90;;;;;;5082840;28;20052;-58
2022/11/21 12:35:49;;;;;;;24.52;7.28;;;9.20;99.90;;;;;;5083209;28;20062;-55
2022/11/21 12:38:29;;;;;;;26.85;5.35;;;9.20;99.90;;;;;;5050469;28;20068;-58
2022/11/21 12:42:47;;;;;;;9.68;2.85;;;9.30;99.90;;;;;;5069961;28;20048;-58
2022/11/21 12:43:49;;;;;;;23.55;4.05;;;9.20;99.90;;;;;;5069054;28;20082;-57
2022/11/21 12:47:00;;;;;;;22.60;4.53;;;9.20;99.90;;;;;;4701297;28;10000657;-58
2022/11/21 12:55:38;;;;;;;15.93;3.13;;;9.20;99.90;;;;;;5053645;28;20059;-57
2022/11/21 12:58:41;;;;;;;11.40;2.65;;;9.10;99.90;;;;;;5076669;28;20503;-58
2022/11/21 13:01:49;;;;;;;17.60;3.75;;;9.10;99.90;;;;;;5027869;28;20056;-56
2022/11/21 13:04:19;;;;;;;14.02;2.50;;;9.00;99.90;;;;;;5080149;28;20056;-59
2022/11/21 13:06:47;;;;;;;11.25;2.50;;;9.00;99.90;;;;;;5067841;28;20052;-59
2022/11/21 13:09:17;;;;;;;16.00;3.70;;;9.10;99.90;;;;;;5080868;28;20083;-59
2022/11/21 13:12:01;;;;;;;15.95;3.15;;;9.00;99.90;;;;;;5057319;28;20055;-60
2022/11/21 13:14:30;;;;;;;18.50;3.63;;;8.90;99.90;;;;;;5080468;28;20063;-60
2022/11/21 13:17:00;;;;;;;10.38;2.80;;;8.90;99.90;;;;;;5063684;28;20517;-58
2022/11/21 13:19:44;;;;;;;11.15;2.20;;;8.80;99.90;;;;;;5073572;28;20063;-60
2022/11/21 13:22:42;;;;;;;10.32;2.20;;;8.80;99.90;;;;;;5062276;28;20492;-59
2022/11/21 13:25:15;;;;;;;11.27;1.98;;;8.70;99.90;;;;;;5053008;28;20040;-58
2022/11/21 13:27:44;;;;;;;7.88;1.98;;;8.60;99.90;;;;;;5073175;28;20051;-58
2022/11/21 13:30:11;;;;;;;10.95;4.45;;;8.60;99.90;;;;;;5074235;28;20056;-60
2022/11/21 13:32:47;;;;;;;7.05;1.52;;;8.50;99.90;;;;;;5083926;28;20691;-59
2022/11/21 13:35:15;;;;;;;7.03;1.30;;;8.40;99.90;;;;;;5056937;28;20082;-58
2022/11/21 13:37:54;;;;;;;8.63;2.25;;;8.30;99.90;;;;;;5071032;28;20491;-60
2022/11/21 13:40:27;;;;;;;8.88;1.77;;;8.30;99.90;;;;;;5069079;28;20518;-60
2022/11/21 13:43:15;;;;;;;6.82;4.30;;;8.20;99.90;;;;;;5080373;28;20074;-59